createdAt,value
2019-05-18T00:00:34.603Z,35.03
2019-05-18T00:03:03.283Z,34.20
2019-05-18T00:05:32.137Z,31.87
2019-05-18T00:08:00.640Z,29.72
2019-05-18T00:10:29.187Z,30.32
2019-05-18T00:12:57.835Z,29.30
2019-05-18T00:15:26.508Z,26.93
2019-05-18T00:17:55.094Z,27.37
2019-05-18T00:20:23.671Z,25.92
2019-05-18T00:22:52.354Z,26.35
2019-05-18T00:25:21.000Z,24.92
2019-05-18T00:27:49.573Z,24.50
2019-05-18T00:30:18.390Z,24.02
2019-05-18T00:32:47.036Z,22.25
2019-05-18T00:35:16.756Z,21.80
2019-05-18T00:37:45.555Z,20.92
2019-05-18T00:40:14.394Z,21.35
2019-05-18T00:42:42.947Z,21.25
2019-05-18T00:45:11.898Z,23.75
2019-05-18T00:47:42.103Z,22.52
2019-05-18T00:50:11.410Z,23.67
2019-05-18T00:52:39.922Z,25.25
2019-05-18T00:55:08.966Z,25.72
2019-05-18T00:57:37.644Z,26.42
2019-05-18T01:00:08.353Z,26.60
2019-05-18T01:02:36.923Z,26.17
2019-05-18T01:05:08.800Z,27.15
2019-05-18T01:07:37.455Z,26.80
2019-05-18T01:10:07.718Z,26.82
2019-05-18T01:12:36.368Z,28.07
2019-05-18T01:15:06.921Z,26.23
2019-05-18T01:17:35.569Z,27.95
2019-05-18T01:20:05.945Z,27.30
2019-05-18T01:22:34.741Z,30.35
2019-05-18T01:25:03.399Z,28.15
2019-05-18T01:27:31.939Z,28.27
2019-05-18T01:30:00.506Z,28.17
2019-05-18T01:32:29.603Z,27.30
2019-05-18T01:34:58.273Z,27.65
2019-05-18T01:37:26.773Z,27.65
2019-05-18T01:39:55.283Z,27.40
2019-05-18T01:42:23.952Z,28.17
2019-05-18T01:44:52.586Z,25.17
2019-05-18T01:47:21.088Z,22.52
2019-05-18T01:49:49.645Z,21.40
2019-05-18T01:52:18.288Z,21.90
2019-05-18T01:54:46.933Z,21.37
2019-05-18T01:57:15.475Z,19.85
2019-05-18T01:59:44.113Z,18.55
2019-05-18T02:02:12.751Z,21.02
2019-05-18T02:04:41.497Z,22.80
2019-05-18T02:07:10.161Z,22.13
2019-05-18T02:09:38.658Z,21.27
2019-05-18T02:12:07.354Z,20.50
2019-05-18T02:14:36.008Z,20.88
2019-05-18T02:17:04.770Z,20.32
2019-05-18T02:19:33.355Z,21.48
2019-05-18T02:22:01.994Z,21.02
2019-05-18T02:24:30.636Z,20.40
2019-05-18T02:26:59.277Z,16.65
2019-05-18T02:29:27.843Z,13.90
2019-05-18T02:31:56.596Z,14.20
2019-05-18T02:34:25.141Z,16.25
2019-05-18T02:36:53.771Z,15.75
2019-05-18T02:39:22.405Z,14.00
2019-05-18T02:41:50.952Z,13.15
2019-05-18T02:44:19.457Z,12.88
2019-05-18T02:46:48.102Z,14.87
2019-05-18T02:49:16.879Z,13.62
2019-05-18T02:51:45.446Z,12.75
2019-05-18T02:54:14.089Z,12.40
2019-05-18T02:56:42.765Z,12.73
2019-05-18T02:59:11.400Z,11.33
2019-05-18T03:01:40.041Z,11.78
2019-05-18T03:04:08.649Z,12.30
2019-05-18T03:06:37.297Z,11.28
2019-05-18T03:09:06.932Z,11.85
2019-05-18T03:11:35.903Z,11.25
2019-05-18T03:14:04.948Z,11.88
2019-05-18T03:16:33.975Z,13.10
2019-05-18T03:19:08.034Z,13.48
2019-05-18T03:21:33.767Z,15.68
2019-05-18T03:24:02.417Z,16.07
2019-05-18T03:26:31.058Z,15.08
2019-05-18T03:28:59.663Z,16.35
2019-05-18T03:31:28.314Z,14.93
2019-05-18T03:33:56.986Z,14.43
2019-05-18T03:36:25.471Z,18.12
2019-05-18T03:38:54.151Z,28.32
2019-05-18T03:41:22.836Z,18.75
2019-05-18T03:43:51.476Z,18.85
2019-05-18T03:46:23.823Z,20.85
2019-05-18T03:48:50.315Z,18.77
2019-05-18T03:51:18.950Z,21.20
2019-05-18T03:53:47.479Z,20.32
2019-05-18T03:56:16.160Z,22.15
2019-05-18T03:58:44.804Z,21.95
2019-05-18T04:01:13.321Z,23.00
2019-05-18T04:03:41.905Z,23.05
2019-05-18T04:06:10.557Z,23.20
2019-05-18T04:08:39.205Z,15.55
2019-05-18T04:11:07.973Z,16.07
2019-05-18T04:13:36.547Z,16.20
2019-05-18T04:16:05.194Z,15.63
2019-05-18T04:18:33.877Z,16.07
2019-05-18T04:21:05.430Z,16.70
2019-05-18T04:23:34.003Z,16.77
2019-05-18T04:26:02.703Z,17.40
2019-05-18T04:28:31.433Z,18.15
2019-05-18T04:31:00.008Z,19.67
2019-05-18T04:33:28.699Z,18.27
2019-05-18T04:35:57.272Z,17.92
2019-05-18T04:38:25.772Z,20.68
2019-05-18T04:40:54.466Z,18.37
2019-05-18T04:43:23.132Z,23.87
2019-05-18T04:45:51.696Z,23.45
2019-05-18T04:48:20.235Z,23.77
2019-05-18T04:50:48.879Z,23.52
2019-05-18T04:53:17.572Z,24.80
2019-05-18T04:55:46.307Z,23.12
2019-05-18T04:58:14.924Z,20.00
2019-05-18T05:00:43.621Z,21.15
2019-05-18T05:03:12.298Z,23.38
2019-05-18T05:05:40.797Z,22.87
2019-05-18T05:08:09.295Z,22.55
2019-05-18T05:10:37.969Z,22.90
2019-05-18T05:13:06.612Z,21.48
2019-05-18T05:15:35.252Z,21.75
2019-05-18T05:18:03.940Z,21.35
2019-05-18T05:20:32.444Z,22.65
2019-05-18T05:23:00.947Z,23.87
2019-05-18T05:25:29.645Z,25.05
2019-05-18T05:27:58.364Z,25.62
2019-05-18T05:30:26.871Z,24.85
2019-05-18T05:32:55.479Z,23.57
2019-05-18T05:35:24.135Z,20.88
2019-05-18T05:37:52.777Z,26.23
2019-05-18T05:40:21.423Z,25.43
2019-05-18T05:42:49.957Z,21.52
2019-05-18T05:45:18.568Z,18.42
2019-05-18T05:47:47.258Z,19.05
2019-05-18T05:50:16.015Z,20.43
2019-05-18T05:52:44.663Z,20.48
2019-05-18T05:55:13.478Z,21.40
2019-05-18T05:57:41.982Z,21.93
2019-05-18T06:00:11.098Z,21.07
2019-05-18T06:02:39.835Z,20.48
2019-05-18T06:05:08.976Z,19.50
2019-05-18T06:07:37.542Z,20.30
2019-05-18T06:10:07.614Z,21.52
2019-05-18T06:12:36.273Z,20.45
2019-05-18T06:15:07.988Z,19.57
2019-05-18T06:17:36.603Z,19.48
2019-05-18T06:20:09.176Z,19.48
2019-05-18T06:22:37.817Z,19.45
2019-05-18T06:25:08.178Z,19.42
2019-05-18T06:27:36.891Z,19.00
2019-05-18T06:30:07.324Z,20.30
2019-05-18T06:32:35.923Z,19.98
2019-05-18T06:35:05.066Z,20.82
2019-05-18T06:37:33.702Z,21.23
2019-05-18T06:40:02.380Z,21.40
2019-05-18T06:42:30.973Z,19.67
2019-05-18T06:44:59.614Z,20.60
2019-05-18T06:47:28.503Z,20.65
2019-05-18T06:49:57.210Z,18.90
2019-05-18T06:52:25.881Z,18.92
2019-05-18T06:54:54.563Z,19.17
2019-05-18T06:57:25.296Z,20.50
2019-05-18T06:59:54.670Z,21.02
2019-05-18T07:02:23.187Z,20.10
2019-05-18T07:04:52.208Z,20.50
2019-05-18T07:07:20.982Z,18.40
2019-05-18T07:09:49.552Z,19.55
2019-05-18T07:12:18.060Z,18.73
2019-05-18T07:14:46.698Z,19.25
2019-05-18T07:17:15.382Z,21.45
2019-05-18T07:19:43.886Z,20.95
2019-05-18T07:22:12.520Z,20.35
2019-05-18T07:24:41.197Z,20.95
2019-05-18T07:27:09.841Z,19.90
2019-05-18T07:29:38.346Z,21.17
2019-05-18T07:32:08.024Z,19.92
2019-05-18T07:34:36.658Z,18.92
2019-05-18T07:37:05.398Z,18.45
2019-05-18T07:39:36.169Z,20.20
2019-05-18T07:42:04.526Z,23.75
2019-05-18T07:44:33.175Z,24.50
2019-05-18T07:47:01.907Z,23.55
2019-05-18T07:49:30.512Z,25.62
2019-05-18T07:51:59.094Z,27.58
2019-05-18T07:54:27.634Z,28.32
2019-05-18T07:56:56.292Z,27.07
2019-05-18T07:59:24.929Z,26.45
2019-05-18T08:01:53.539Z,25.82
2019-05-18T08:04:22.108Z,27.30
2019-05-18T08:06:51.937Z,27.77
2019-05-18T08:09:20.626Z,26.68
2019-05-18T08:11:49.193Z,25.30
2019-05-18T08:14:17.695Z,24.95
2019-05-18T08:16:46.307Z,24.27
2019-05-18T08:19:15.139Z,26.20
2019-05-18T08:21:52.637Z,25.52
2019-05-18T08:24:13.980Z,24.95
2019-05-18T08:26:42.568Z,25.85
2019-05-18T08:29:11.164Z,25.77
2019-05-18T08:31:39.729Z,25.92
2019-05-18T08:34:08.395Z,23.73
2019-05-18T08:36:37.584Z,24.43
2019-05-18T08:39:06.705Z,24.52
2019-05-18T08:41:35.294Z,23.47
2019-05-18T08:44:03.959Z,21.48
2019-05-18T08:46:32.600Z,21.35
2019-05-18T08:49:01.251Z,20.92
2019-05-18T08:51:29.878Z,19.00
2019-05-18T08:53:58.514Z,18.10
2019-05-18T08:56:27.078Z,13.38
2019-05-18T08:58:55.612Z,15.83
2019-05-18T09:01:24.183Z,13.28
2019-05-18T09:03:52.816Z,11.03
2019-05-18T09:06:21.489Z,10.78
2019-05-18T09:08:50.383Z,14.28
2019-05-18T09:11:18.946Z,11.18
2019-05-18T09:13:47.501Z,13.30
2019-05-18T09:16:16.139Z,13.38
2019-05-18T09:18:44.776Z,16.17
2019-05-18T09:21:13.447Z,14.75
2019-05-18T09:23:42.020Z,14.03
2019-05-18T09:26:10.590Z,13.43
2019-05-18T09:28:39.339Z,13.10
2019-05-18T09:31:08.015Z,14.07
2019-05-18T09:33:36.630Z,13.43
2019-05-18T09:36:05.408Z,13.88
2019-05-18T09:38:34.053Z,12.63
2019-05-18T09:41:02.716Z,13.10
2019-05-18T09:43:31.257Z,12.85
2019-05-18T09:45:59.821Z,12.10
2019-05-18T09:48:28.393Z,12.80
2019-05-18T09:50:56.995Z,12.75
2019-05-18T09:53:25.639Z,13.90
2019-05-18T09:55:54.203Z,13.83
2019-05-18T09:58:22.975Z,12.78
2019-05-18T10:00:51.546Z,12.75
2019-05-18T10:03:20.378Z,15.70
2019-05-18T10:05:49.064Z,11.95
2019-05-18T10:08:17.560Z,11.97
2019-05-18T10:10:46.401Z,12.23
2019-05-18T10:13:15.086Z,11.75
2019-05-18T10:15:43.657Z,11.78
2019-05-18T10:18:12.158Z,9.40
2019-05-18T10:20:40.835Z,8.80
2019-05-18T10:23:13.730Z,9.25
2019-05-18T10:25:39.797Z,10.05
2019-05-18T10:28:08.509Z,10.00
2019-05-18T10:30:37.209Z,10.28
2019-05-18T10:33:05.851Z,9.50
2019-05-18T10:35:34.444Z,9.43
2019-05-18T10:38:03.080Z,9.83
2019-05-18T10:40:31.718Z,9.28
2019-05-18T10:43:00.248Z,9.50
2019-05-18T10:45:28.884Z,9.98
2019-05-18T10:47:57.804Z,8.35
2019-05-18T10:50:26.444Z,9.00
2019-05-18T10:52:54.944Z,9.08
2019-05-18T10:55:23.633Z,7.47
2019-05-18T10:57:52.324Z,7.95
2019-05-18T11:00:21.319Z,6.70
2019-05-18T11:02:50.083Z,8.05
2019-05-18T11:05:19.115Z,7.72
2019-05-18T11:07:47.694Z,6.22
2019-05-18T11:10:18.100Z,6.60
2019-05-18T11:12:46.859Z,5.65
2019-05-18T11:15:15.840Z,5.78
2019-05-18T11:17:44.396Z,5.60
2019-05-18T11:20:14.708Z,4.83
2019-05-18T11:22:43.478Z,5.22
2019-05-18T11:25:12.404Z,5.10
2019-05-18T11:27:41.008Z,4.90
2019-05-18T11:30:10.672Z,4.65
2019-05-18T11:32:39.347Z,3.55
2019-05-18T11:35:09.006Z,4.03
2019-05-18T11:37:37.499Z,4.08
2019-05-18T11:40:07.427Z,3.52
2019-05-18T11:42:36.329Z,2.08
2019-05-18T11:45:10.034Z,3.10
2019-05-18T11:47:38.722Z,2.00
2019-05-18T11:50:09.565Z,1.72
2019-05-18T11:52:38.194Z,1.92
2019-05-18T11:55:07.562Z,3.08
2019-05-18T11:57:36.236Z,1.35
2019-05-18T12:00:07.749Z,2.15
2019-05-18T12:02:36.351Z,2.00
2019-05-18T12:05:06.876Z,1.50
2019-05-18T12:07:35.512Z,1.95
2019-05-18T12:10:06.246Z,1.57
2019-05-18T12:12:34.786Z,1.70
2019-05-18T12:15:04.314Z,1.50
2019-05-18T12:17:33.020Z,1.07
2019-05-18T12:20:01.620Z,1.30
2019-05-18T12:22:30.104Z,1.85
2019-05-18T12:24:58.660Z,1.07
2019-05-18T12:27:27.294Z,0.90
2019-05-18T12:29:55.851Z,1.00
2019-05-18T12:32:24.598Z,0.80
2019-05-18T12:34:53.160Z,0.70
2019-05-18T12:37:22.865Z,1.40
2019-05-18T12:39:53.440Z,1.12
2019-05-18T12:42:22.460Z,1.12
2019-05-18T12:44:51.097Z,1.10
2019-05-18T12:47:19.876Z,0.75
2019-05-18T12:49:48.584Z,1.15
2019-05-18T12:52:17.080Z,0.47
2019-05-18T12:54:47.092Z,0.50
2019-05-18T12:57:15.952Z,0.70
2019-05-18T12:59:44.515Z,0.40
2019-05-18T13:02:13.231Z,0.40
2019-05-18T13:04:42.142Z,0.40
2019-05-18T13:07:10.797Z,1.10
2019-05-18T13:09:39.424Z,0.40
2019-05-18T13:12:11.561Z,0.50
2019-05-18T13:14:38.614Z,0.50
2019-05-18T13:17:07.213Z,0.50
2019-05-18T13:19:35.773Z,0.50
2019-05-18T13:22:04.474Z,0.60
2019-05-18T13:24:44.856Z,0.60
2019-05-18T13:27:03.423Z,0.50
2019-05-18T13:29:32.159Z,0.50
2019-05-18T13:32:00.842Z,0.62
2019-05-18T13:34:29.405Z,0.57
2019-05-18T13:36:57.920Z,0.50
2019-05-18T13:39:26.587Z,0.50
2019-05-18T13:41:55.288Z,0.70
2019-05-18T13:44:23.853Z,0.40
2019-05-18T13:46:52.467Z,0.50
2019-05-18T13:49:21.027Z,0.55
2019-05-18T13:51:49.520Z,0.53
2019-05-18T13:54:18.137Z,0.50
2019-05-18T13:56:46.761Z,1.37
2019-05-18T13:59:15.397Z,0.78
2019-05-18T14:01:43.941Z,0.60
2019-05-18T14:04:12.513Z,0.60
2019-05-18T14:06:41.147Z,0.55
2019-05-18T14:09:09.741Z,0.37
2019-05-18T14:11:38.317Z,1.15
2019-05-18T14:14:06.892Z,0.60
2019-05-18T14:16:35.805Z,2.27
2019-05-18T14:19:04.438Z,0.80
2019-05-18T14:21:33.073Z,0.60
2019-05-18T14:24:01.679Z,1.32
2019-05-18T14:26:30.307Z,1.05
2019-05-18T14:28:58.870Z,0.80
2019-05-18T14:31:27.540Z,0.72
2019-05-18T14:33:56.210Z,0.60
2019-05-18T14:36:24.723Z,0.70
2019-05-18T14:38:56.862Z,0.72
2019-05-18T14:41:23.746Z,0.50
2019-05-18T14:43:52.390Z,0.50
2019-05-18T14:46:21.086Z,0.78
2019-05-18T14:48:49.655Z,0.60
2019-05-18T14:51:18.297Z,0.70
2019-05-18T14:53:46.958Z,0.50
2019-05-18T14:56:15.482Z,0.50
2019-05-18T14:58:44.034Z,0.70
2019-05-18T15:01:12.705Z,0.60
2019-05-18T15:03:41.324Z,0.50
2019-05-18T15:06:09.958Z,0.60
2019-05-18T15:08:38.647Z,0.45
2019-05-18T15:11:07.446Z,0.60
2019-05-18T15:13:36.022Z,0.50
2019-05-18T15:16:04.679Z,0.60
2019-05-18T15:18:33.241Z,0.68
2019-05-18T15:21:01.741Z,0.50
2019-05-18T15:23:30.417Z,0.50
2019-05-18T15:25:59.032Z,0.50
2019-05-18T15:28:27.701Z,0.50
2019-05-18T15:30:56.291Z,0.50
2019-05-18T15:33:24.935Z,0.60
2019-05-18T15:35:53.566Z,0.60
2019-05-18T15:38:22.299Z,0.60
2019-05-18T15:40:50.792Z,0.50
2019-05-18T15:43:19.435Z,0.70
2019-05-18T15:45:48.132Z,0.60
2019-05-18T15:48:16.776Z,0.50
2019-05-18T15:50:45.410Z,0.60
2019-05-18T15:53:14.012Z,0.60
2019-05-18T15:55:42.729Z,0.60
2019-05-18T15:58:11.321Z,0.50
2019-05-18T16:00:39.972Z,0.70
2019-05-18T16:03:08.537Z,0.60
2019-05-18T16:05:37.168Z,0.60
2019-05-18T16:08:05.828Z,0.70
2019-05-18T16:10:34.464Z,0.60
2019-05-18T16:13:03.119Z,0.60
2019-05-18T16:15:31.793Z,0.90
2019-05-18T16:18:00.345Z,1.07
2019-05-18T16:20:28.980Z,0.60
2019-05-18T16:22:57.576Z,0.60
2019-05-18T16:25:26.208Z,0.68
2019-05-18T16:27:54.839Z,0.60
2019-05-18T16:30:23.505Z,0.68
2019-05-18T16:32:52.147Z,0.60
2019-05-18T16:35:20.875Z,0.80
2019-05-18T16:37:49.599Z,0.85
2019-05-18T16:40:18.811Z,0.70
2019-05-18T16:42:47.518Z,1.17
2019-05-18T16:45:16.618Z,0.82
2019-05-18T16:47:45.246Z,0.82
2019-05-18T16:50:14.174Z,1.20
2019-05-18T16:52:42.787Z,1.80
2019-05-18T16:55:11.782Z,0.98
2019-05-18T16:57:40.394Z,1.00
2019-05-18T17:00:11.215Z,2.00
2019-05-18T17:02:39.963Z,1.98
2019-05-18T17:05:09.503Z,1.22
2019-05-18T17:07:38.166Z,1.17
2019-05-18T17:10:07.304Z,1.92
2019-05-18T17:12:35.870Z,1.17
2019-05-18T17:15:06.830Z,1.32
2019-05-18T17:17:35.702Z,1.20
2019-05-18T17:20:06.734Z,1.42
2019-05-18T17:22:35.332Z,1.55
2019-05-18T17:25:05.175Z,1.70
2019-05-18T17:27:33.737Z,1.50
2019-05-18T17:30:02.513Z,2.02
2019-05-18T17:32:31.274Z,1.95
2019-05-18T17:34:59.755Z,2.30
2019-05-18T17:37:28.480Z,2.25
2019-05-18T17:39:57.100Z,2.10
2019-05-18T17:42:25.757Z,2.92
2019-05-18T17:44:54.443Z,5.50
2019-05-18T17:47:23.017Z,4.78
2019-05-18T17:49:51.759Z,2.60
2019-05-18T17:52:20.419Z,2.35
2019-05-18T17:54:48.908Z,2.27
2019-05-18T17:57:17.614Z,1.40
2019-05-18T17:59:49.420Z,1.12
2019-05-18T18:02:16.577Z,1.20
2019-05-18T18:04:45.112Z,1.20
2019-05-18T18:07:13.720Z,2.65
2019-05-18T18:09:42.353Z,2.80
2019-05-18T18:12:10.908Z,2.30
2019-05-18T18:14:39.729Z,2.33
2019-05-18T18:17:08.354Z,2.65
2019-05-18T18:19:36.985Z,2.87
2019-05-18T18:22:05.649Z,3.35
2019-05-18T18:24:34.278Z,3.05
2019-05-18T18:27:02.841Z,3.95
2019-05-18T18:29:31.363Z,3.22
2019-05-18T18:31:59.991Z,3.70
2019-05-18T18:34:28.622Z,1.98
2019-05-18T18:36:57.218Z,4.03
2019-05-18T18:39:25.785Z,2.67
2019-05-18T18:41:54.368Z,2.80
2019-05-18T18:44:23.047Z,2.33
2019-05-18T18:46:51.655Z,2.92
2019-05-18T18:49:20.172Z,3.10
2019-05-18T18:51:48.754Z,2.27
2019-05-18T18:54:17.386Z,2.40
2019-05-18T18:56:45.948Z,2.42
2019-05-18T18:59:14.557Z,2.25
2019-05-18T19:01:43.121Z,2.15
2019-05-18T19:04:12.049Z,1.85
2019-05-18T19:06:40.698Z,3.62
2019-05-18T19:09:09.319Z,1.72
2019-05-18T19:11:37.879Z,1.67
2019-05-18T19:14:06.511Z,1.30
2019-05-18T19:16:35.076Z,1.47
2019-05-18T19:19:03.760Z,1.70
2019-05-18T19:21:32.398Z,1.65
2019-05-18T19:24:00.891Z,2.05
2019-05-18T19:26:29.474Z,1.40
2019-05-18T19:28:58.096Z,1.50
2019-05-18T19:31:26.665Z,2.00
2019-05-18T19:33:55.188Z,1.77
2019-05-18T19:36:23.739Z,2.05
2019-05-18T19:38:52.378Z,3.08
2019-05-18T19:41:21.056Z,3.15
2019-05-18T19:43:49.614Z,3.47
2019-05-18T19:46:18.180Z,4.00
2019-05-18T19:48:46.702Z,4.30
2019-05-18T19:51:16.137Z,4.87
2019-05-18T19:53:44.968Z,5.12
2019-05-18T19:56:13.553Z,5.67
2019-05-18T19:58:42.111Z,5.33
2019-05-18T20:01:10.683Z,5.47
2019-05-18T20:03:39.352Z,5.72
2019-05-18T20:06:07.983Z,6.47
2019-05-18T20:08:36.549Z,5.85
2019-05-18T20:11:05.203Z,6.17
2019-05-18T20:13:33.827Z,6.33
2019-05-18T20:16:02.486Z,6.22
2019-05-18T20:18:31.014Z,6.15
2019-05-18T20:20:59.640Z,5.85
2019-05-18T20:23:28.232Z,6.25
2019-05-18T20:25:56.828Z,5.83
2019-05-18T20:28:25.469Z,5.17
2019-05-18T20:30:54.106Z,6.60
2019-05-18T20:33:22.628Z,6.28
2019-05-18T20:35:51.186Z,6.40
2019-05-18T20:38:19.844Z,6.35
2019-05-18T20:40:48.454Z,6.62
2019-05-18T20:43:17.028Z,6.28
2019-05-18T20:45:45.602Z,5.60
2019-05-18T20:48:16.910Z,6.03
2019-05-18T20:50:44.516Z,6.75
2019-05-18T20:53:13.065Z,7.00
2019-05-18T20:55:41.702Z,5.42
2019-05-18T20:58:10.340Z,5.40
2019-05-18T21:00:39.076Z,5.95
2019-05-18T21:03:07.709Z,5.22
2019-05-18T21:05:36.283Z,5.20
2019-05-18T21:08:04.954Z,2.98
2019-05-18T21:10:33.518Z,5.08
2019-05-18T21:13:02.295Z,5.80
2019-05-18T21:15:30.962Z,5.33
2019-05-18T21:17:59.530Z,5.85
2019-05-18T21:20:28.120Z,6.33
2019-05-18T21:22:56.774Z,5.85
2019-05-18T21:25:25.346Z,5.30
2019-05-18T21:27:53.841Z,6.00
2019-05-18T21:30:22.518Z,6.47
2019-05-18T21:32:51.142Z,6.35
2019-05-18T21:35:19.721Z,6.35
2019-05-18T21:37:48.255Z,5.95
2019-05-18T21:40:16.885Z,5.72
2019-05-18T21:42:45.446Z,6.30
2019-05-18T21:45:14.716Z,6.55
2019-05-18T21:47:43.347Z,6.17
2019-05-18T21:50:12.468Z,5.50
2019-05-18T21:52:42.069Z,7.53
2019-05-18T21:55:11.522Z,6.62
2019-05-18T21:57:40.151Z,6.30
2019-05-18T22:00:09.638Z,5.60
2019-05-18T22:02:38.275Z,6.35
2019-05-18T22:05:07.209Z,6.30
2019-05-18T22:07:35.874Z,6.20
2019-05-18T22:10:07.801Z,6.60
2019-05-18T22:12:36.312Z,7.35
2019-05-18T22:15:06.662Z,6.47
2019-05-18T22:17:36.977Z,6.65
2019-05-18T22:20:07.073Z,7.00
2019-05-18T22:22:35.682Z,7.25
2019-05-18T22:25:04.577Z,6.67
2019-05-18T22:27:33.073Z,7.42
2019-05-18T22:30:01.678Z,6.90
2019-05-18T22:32:30.315Z,5.87
2019-05-18T22:34:58.931Z,6.20
2019-05-18T22:37:27.431Z,6.42
2019-05-18T22:39:55.991Z,6.10
2019-05-18T22:42:24.774Z,7.22
2019-05-18T22:44:53.373Z,5.90
2019-05-18T22:47:21.885Z,5.70
2019-05-18T22:49:50.427Z,6.85
2019-05-18T22:52:19.296Z,6.17
2019-05-18T22:54:47.867Z,6.28
2019-05-18T22:57:16.392Z,5.85
2019-05-18T22:59:45.101Z,5.75
2019-05-18T23:02:13.745Z,5.62
2019-05-18T23:04:42.314Z,5.50
2019-05-18T23:07:10.846Z,5.47
2019-05-18T23:09:39.403Z,5.20
2019-05-18T23:12:08.068Z,5.72
2019-05-18T23:14:36.682Z,6.10
2019-05-18T23:17:05.430Z,6.17
2019-05-18T23:19:33.938Z,5.67
2019-05-18T23:22:02.581Z,5.75
2019-05-18T23:24:31.136Z,5.70
2019-05-18T23:26:59.673Z,5.83
2019-05-18T23:29:28.236Z,5.90
2019-05-18T23:31:56.858Z,5.72
2019-05-18T23:34:25.466Z,6.85
2019-05-18T23:36:53.967Z,6.50
2019-05-18T23:39:22.649Z,5.97
2019-05-18T23:41:51.328Z,6.03
2019-05-18T23:44:19.896Z,5.92
2019-05-18T23:46:48.541Z,6.53
2019-05-18T23:49:17.242Z,6.40
2019-05-18T23:51:45.849Z,6.20
2019-05-18T23:54:14.420Z,6.50
2019-05-18T23:56:43.090Z,8.10
2019-05-18T23:59:11.826Z,7.12
